sensor_id;sensor_type;location;lat;lon;timestamp;P1;durP1;ratioP1;P2;durP2;ratioP2
45676;SDS011;31390;51.186;6.830;2022-10-23T00:00:07;20.85;;;6.53;;
45676;SDS011;31390;51.186;6.830;2022-10-23T00:02:33;20.17;;;5.57;;
45676;SDS011;31390;51.186;6.830;2022-10-23T00:05:00;44.15;;;7.50;;
45676;SDS011;31390;51.186;6.830;2022-10-23T00:07:27;46.40;;;7.28;;
45676;SDS011;31390;51.186;6.830;2022-10-23T00:09:53;21.67;;;6.10;;
45676;SDS011;31390;51.186;6.830;2022-10-23T00:12:19;36.15;;;7.78;;
45676;SDS011;31390;51.186;6.830;2022-10-23T00:14:46;120.05;;;11.98;;
45676;SDS011;31390;51.186;6.830;2022-10-23T00:17:12;40.78;;;7.35;;
45676;SDS011;31390;51.186;6.830;2022-10-23T00:19:39;23.23;;;5.60;;
45676;SDS011;31390;51.186;6.830;2022-10-23T00:22:05;16.40;;;5.82;;
45676;SDS011;31390;51.186;6.830;2022-10-23T00:24:33;22.85;;;6.00;;
45676;SDS011;31390;51.186;6.830;2022-10-23T00:27:00;14.18;;;5.28;;
45676;SDS011;31390;51.186;6.830;2022-10-23T00:29:26;57.13;;;9.85;;
45676;SDS011;31390;51.186;6.830;2022-10-23T00:31:53;26.63;;;5.80;;
45676;SDS011;31390;51.186;6.830;2022-10-23T00:34:20;39.35;;;6.70;;
45676;SDS011;31390;51.186;6.830;2022-10-23T00:36:46;17.88;;;5.55;;
45676;SDS011;31390;51.186;6.830;2022-10-23T00:39:12;15.02;;;5.47;;
45676;SDS011;31390;51.186;6.830;2022-10-23T00:41:39;31.23;;;7.13;;
45676;SDS011;31390;51.186;6.830;2022-10-23T00:46:44;95.80;;;11.18;;
45676;SDS011;31390;51.186;6.830;2022-10-23T00:49:11;77.20;;;8.80;;
45676;SDS011;31390;51.186;6.830;2022-10-23T00:51:44;17.75;;;6.07;;
45676;SDS011;31390;51.186;6.830;2022-10-23T00:54:11;34.72;;;7.22;;
45676;SDS011;31390;51.186;6.830;2022-10-23T00:56:59;70.88;;;8.73;;
45676;SDS011;31390;51.186;6.830;2022-10-23T00:59:27;26.20;;;7.15;;
45676;SDS011;31390;51.186;6.830;2022-10-23T01:01:54;37.25;;;7.28;;
45676;SDS011;31390;51.186;6.830;2022-10-23T01:04:21;20.35;;;5.60;;
45676;SDS011;31390;51.186;6.830;2022-10-23T01:09:37;20.55;;;6.25;;
45676;SDS011;31390;51.186;6.830;2022-10-23T01:17:29;22.30;;;5.78;;
45676;SDS011;31390;51.186;6.830;2022-10-23T01:20:10;68.72;;;9.63;;
45676;SDS011;31390;51.186;6.830;2022-10-23T01:25:38;23.13;;;6.68;;
45676;SDS011;31390;51.186;6.830;2022-10-23T01:28:09;19.52;;;6.28;;
45676;SDS011;31390;51.186;6.830;2022-10-23T01:30:36;32.72;;;7.50;;
45676;SDS011;31390;51.186;6.830;2022-10-23T01:33:08;29.20;;;7.00;;
45676;SDS011;31390;51.186;6.830;2022-10-23T01:35:48;35.13;;;7.55;;
45676;SDS011;31390;51.186;6.830;2022-10-23T01:38:20;34.15;;;8.02;;
45676;SDS011;31390;51.186;6.830;2022-10-23T01:40:54;82.72;;;9.90;;
45676;SDS011;31390;51.186;6.830;2022-10-23T01:43:41;20.75;;;6.30;;
45676;SDS011;31390;51.186;6.830;2022-10-23T01:46:09;81.85;;;10.00;;
45676;SDS011;31390;51.186;6.830;2022-10-23T01:48:38;43.38;;;7.88;;
45676;SDS011;31390;51.186;6.830;2022-10-23T01:51:06;37.30;;;6.32;;
45676;SDS011;31390;51.186;6.830;2022-10-23T01:53:35;77.88;;;9.05;;
45676;SDS011;31390;51.186;6.830;2022-10-23T01:56:06;18.27;;;5.30;;
45676;SDS011;31390;51.186;6.830;2022-10-23T01:58:33;34.70;;;6.03;;
45676;SDS011;31390;51.186;6.830;2022-10-23T02:01:01;44.75;;;7.15;;
45676;SDS011;31390;51.186;6.830;2022-10-23T02:03:30;17.50;;;5.60;;
45676;SDS011;31390;51.186;6.830;2022-10-23T02:05:58;54.60;;;8.38;;
45676;SDS011;31390;51.186;6.830;2022-10-23T02:08:24;95.25;;;11.35;;
45676;SDS011;31390;51.186;6.830;2022-10-23T02:10:59;38.70;;;7.57;;
45676;SDS011;31390;51.186;6.830;2022-10-23T02:19:20;96.03;;;10.35;;
45676;SDS011;31390;51.186;6.830;2022-10-23T02:24:36;31.85;;;6.32;;
45676;SDS011;31390;51.186;6.830;2022-10-23T02:27:17;52.03;;;7.80;;
45676;SDS011;31390;51.186;6.830;2022-10-23T02:29:54;28.63;;;5.45;;
45676;SDS011;31390;51.186;6.830;2022-10-23T02:32:22;71.75;;;9.32;;
45676;SDS011;31390;51.186;6.830;2022-10-23T02:34:50;50.63;;;8.35;;
45676;SDS011;31390;51.186;6.830;2022-10-23T02:37:16;18.05;;;5.18;;
45676;SDS011;31390;51.186;6.830;2022-10-23T02:39:43;16.45;;;5.20;;
45676;SDS011;31390;51.186;6.830;2022-10-23T02:42:26;15.10;;;6.00;;
45676;SDS011;31390;51.186;6.830;2022-10-23T02:44:54;7.97;;;4.78;;
45676;SDS011;31390;51.186;6.830;2022-10-23T02:50:14;32.20;;;6.18;;
45676;SDS011;31390;51.186;6.830;2022-10-23T02:58:00;25.30;;;5.25;;
45676;SDS011;31390;51.186;6.830;2022-10-23T03:00:31;33.35;;;6.43;;
45676;SDS011;31390;51.186;6.830;2022-10-23T03:03:00;38.00;;;6.63;;
45676;SDS011;31390;51.186;6.830;2022-10-23T03:05:30;40.92;;;6.70;;
45676;SDS011;31390;51.186;6.830;2022-10-23T03:07:57;55.72;;;8.13;;
45676;SDS011;31390;51.186;6.830;2022-10-23T03:10:24;25.52;;;6.20;;
45676;SDS011;31390;51.186;6.830;2022-10-23T03:12:51;42.05;;;6.55;;
45676;SDS011;31390;51.186;6.830;2022-10-23T03:15:18;28.50;;;6.18;;
45676;SDS011;31390;51.186;6.830;2022-10-23T03:17:47;22.73;;;5.72;;
45676;SDS011;31390;51.186;6.830;2022-10-23T03:20:13;18.85;;;5.82;;
45676;SDS011;31390;51.186;6.830;2022-10-23T03:22:41;104.28;;;10.93;;
45676;SDS011;31390;51.186;6.830;2022-10-23T03:25:08;29.67;;;6.80;;
45676;SDS011;31390;51.186;6.830;2022-10-23T03:27:34;40.85;;;7.50;;
45676;SDS011;31390;51.186;6.830;2022-10-23T03:30:04;21.35;;;5.60;;
45676;SDS011;31390;51.186;6.830;2022-10-23T03:32:32;15.32;;;5.72;;
45676;SDS011;31390;51.186;6.830;2022-10-23T03:34:59;11.23;;;4.55;;
45676;SDS011;31390;51.186;6.830;2022-10-23T03:37:26;17.00;;;5.22;;
45676;SDS011;31390;51.186;6.830;2022-10-23T03:39:52;9.07;;;4.25;;
45676;SDS011;31390;51.186;6.830;2022-10-23T03:42:19;30.48;;;6.30;;
45676;SDS011;31390;51.186;6.830;2022-10-23T03:44:45;12.55;;;4.45;;
45676;SDS011;31390;51.186;6.830;2022-10-23T03:47:12;20.63;;;5.45;;
45676;SDS011;31390;51.186;6.830;2022-10-23T03:49:40;36.97;;;5.80;;
45676;SDS011;31390;51.186;6.830;2022-10-23T03:52:06;35.60;;;6.55;;
45676;SDS011;31390;51.186;6.830;2022-10-23T03:54:33;14.82;;;5.85;;
45676;SDS011;31390;51.186;6.830;2022-10-23T03:57:00;49.17;;;7.72;;
45676;SDS011;31390;51.186;6.830;2022-10-23T03:59:26;14.15;;;5.70;;
45676;SDS011;31390;51.186;6.830;2022-10-23T04:01:53;19.58;;;6.80;;
45676;SDS011;31390;51.186;6.830;2022-10-23T04:04:22;22.77;;;6.60;;
45676;SDS011;31390;51.186;6.830;2022-10-23T04:06:49;35.65;;;7.05;;
45676;SDS011;31390;51.186;6.830;2022-10-23T04:09:17;29.45;;;6.18;;
45676;SDS011;31390;51.186;6.830;2022-10-23T04:11:44;18.02;;;4.93;;
45676;SDS011;31390;51.186;6.830;2022-10-23T04:14:11;8.13;;;4.40;;
45676;SDS011;31390;51.186;6.830;2022-10-23T04:16:38;18.42;;;4.78;;
45676;SDS011;31390;51.186;6.830;2022-10-23T04:19:04;61.58;;;7.55;;
45676;SDS011;31390;51.186;6.830;2022-10-23T04:21:31;22.77;;;5.70;;
45676;SDS011;31390;51.186;6.830;2022-10-23T04:23:57;17.00;;;4.13;;
45676;SDS011;31390;51.186;6.830;2022-10-23T04:26:24;14.10;;;4.55;;
45676;SDS011;31390;51.186;6.830;2022-10-23T04:28:50;32.60;;;6.32;;
45676;SDS011;31390;51.186;6.830;2022-10-23T04:31:17;39.17;;;6.43;;
45676;SDS011;31390;51.186;6.830;2022-10-23T04:33:43;36.47;;;7.07;;
45676;SDS011;31390;51.186;6.830;2022-10-23T04:36:23;21.00;;;6.78;;
45676;SDS011;31390;51.186;6.830;2022-10-23T04:38:50;12.40;;;5.53;;
45676;SDS011;31390;51.186;6.830;2022-10-23T04:41:18;17.55;;;5.55;;
45676;SDS011;31390;51.186;6.830;2022-10-23T04:43:45;31.52;;;6.85;;
45676;SDS011;31390;51.186;6.830;2022-10-23T04:46:13;24.65;;;6.43;;
45676;SDS011;31390;51.186;6.830;2022-10-23T04:48:39;11.50;;;4.60;;
45676;SDS011;31390;51.186;6.830;2022-10-23T04:51:22;17.77;;;5.35;;
45676;SDS011;31390;51.186;6.830;2022-10-23T04:53:56;49.58;;;7.43;;
45676;SDS011;31390;51.186;6.830;2022-10-23T04:56:57;16.45;;;5.63;;
45676;SDS011;31390;51.186;6.830;2022-10-23T04:59:29;84.45;;;10.60;;
45676;SDS011;31390;51.186;6.830;2022-10-23T05:01:58;50.38;;;6.47;;
45676;SDS011;31390;51.186;6.830;2022-10-23T05:04:26;63.92;;;7.88;;
45676;SDS011;31390;51.186;6.830;2022-10-23T05:07:11;334.90;;;25.98;;
45676;SDS011;31390;51.186;6.830;2022-10-23T05:09:51;266.27;;;21.60;;
45676;SDS011;31390;51.186;6.830;2022-10-23T05:12:47;41.90;;;6.03;;
45676;SDS011;31390;51.186;6.830;2022-10-23T05:15:13;21.40;;;4.75;;
45676;SDS011;31390;51.186;6.830;2022-10-23T05:17:42;27.05;;;5.25;;
45676;SDS011;31390;51.186;6.830;2022-10-23T05:20:10;53.60;;;7.68;;
45676;SDS011;31390;51.186;6.830;2022-10-23T05:22:39;29.88;;;5.63;;
45676;SDS011;31390;51.186;6.830;2022-10-23T05:25:09;19.95;;;5.28;;
45676;SDS011;31390;51.186;6.830;2022-10-23T05:27:36;34.25;;;5.93;;
45676;SDS011;31390;51.186;6.830;2022-10-23T05:30:07;28.92;;;5.55;;
45676;SDS011;31390;51.186;6.830;2022-10-23T05:32:36;19.20;;;4.32;;
45676;SDS011;31390;51.186;6.830;2022-10-23T05:35:05;35.83;;;5.35;;
45676;SDS011;31390;51.186;6.830;2022-10-23T05:37:33;13.93;;;3.60;;
45676;SDS011;31390;51.186;6.830;2022-10-23T05:40:07;37.28;;;6.13;;
45676;SDS011;31390;51.186;6.830;2022-10-23T05:42:36;49.20;;;6.80;;
45676;SDS011;31390;51.186;6.830;2022-10-23T05:45:08;22.67;;;4.90;;
45676;SDS011;31390;51.186;6.830;2022-10-23T05:48:01;17.08;;;4.43;;
45676;SDS011;31390;51.186;6.830;2022-10-23T05:51:04;48.05;;;6.90;;
45676;SDS011;31390;51.186;6.830;2022-10-23T05:53:50;15.05;;;4.22;;
45676;SDS011;31390;51.186;6.830;2022-10-23T05:56:29;26.83;;;5.32;;
45676;SDS011;31390;51.186;6.830;2022-10-23T05:59:18;63.65;;;7.05;;
45676;SDS011;31390;51.186;6.830;2022-10-23T06:02:07;27.75;;;5.35;;
45676;SDS011;31390;51.186;6.830;2022-10-23T06:04:47;24.48;;;5.85;;
45676;SDS011;31390;51.186;6.830;2022-10-23T06:07:28;90.28;;;9.57;;
45676;SDS011;31390;51.186;6.830;2022-10-23T06:10:02;61.78;;;7.82;;
45676;SDS011;31390;51.186;6.830;2022-10-23T06:12:29;34.22;;;6.55;;
45676;SDS011;31390;51.186;6.830;2022-10-23T06:14:57;27.60;;;5.57;;
45676;SDS011;31390;51.186;6.830;2022-10-23T06:17:35;14.68;;;5.18;;
45676;SDS011;31390;51.186;6.830;2022-10-23T06:20:02;63.55;;;10.18;;
45676;SDS011;31390;51.186;6.830;2022-10-23T06:22:33;15.82;;;5.47;;
45676;SDS011;31390;51.186;6.830;2022-10-23T06:25:12;27.60;;;5.68;;
45676;SDS011;31390;51.186;6.830;2022-10-23T06:27:38;28.52;;;5.38;;
45676;SDS011;31390;51.186;6.830;2022-10-23T06:30:07;28.83;;;6.45;;
45676;SDS011;31390;51.186;6.830;2022-10-23T06:32:34;59.35;;;7.43;;
45676;SDS011;31390;51.186;6.830;2022-10-23T06:35:10;9.43;;;4.50;;
45676;SDS011;31390;51.186;6.830;2022-10-23T06:37:37;11.10;;;4.13;;
45676;SDS011;31390;51.186;6.830;2022-10-23T06:40:09;76.28;;;9.57;;
45676;SDS011;31390;51.186;6.830;2022-10-23T06:42:58;46.55;;;5.97;;
45676;SDS011;31390;51.186;6.830;2022-10-23T06:45:45;17.85;;;4.55;;
45676;SDS011;31390;51.186;6.830;2022-10-23T06:48:12;40.10;;;6.53;;
45676;SDS011;31390;51.186;6.830;2022-10-23T06:51:02;28.90;;;5.55;;
45676;SDS011;31390;51.186;6.830;2022-10-23T06:53:36;14.68;;;4.90;;
45676;SDS011;31390;51.186;6.830;2022-10-23T06:56:10;95.78;;;10.18;;
45676;SDS011;31390;51.186;6.830;2022-10-23T06:58:39;28.85;;;5.65;;
45676;SDS011;31390;51.186;6.830;2022-10-23T07:01:11;44.22;;;6.25;;
45676;SDS011;31390;51.186;6.830;2022-10-23T07:03:43;34.63;;;5.30;;
45676;SDS011;31390;51.186;6.830;2022-10-23T07:06:11;22.70;;;5.28;;
45676;SDS011;31390;51.186;6.830;2022-10-23T07:08:37;53.70;;;7.00;;
45676;SDS011;31390;51.186;6.830;2022-10-23T07:11:19;11.80;;;4.43;;
45676;SDS011;31390;51.186;6.830;2022-10-23T07:13:47;31.48;;;6.00;;
45676;SDS011;31390;51.186;6.830;2022-10-23T07:16:17;63.47;;;7.93;;
45676;SDS011;31390;51.186;6.830;2022-10-23T07:18:44;48.40;;;7.47;;
45676;SDS011;31390;51.186;6.830;2022-10-23T07:21:43;10.05;;;4.57;;
45676;SDS011;31390;51.186;6.830;2022-10-23T07:24:23;12.77;;;4.40;;
45676;SDS011;31390;51.186;6.830;2022-10-23T07:26:49;7.07;;;4.10;;
45676;SDS011;31390;51.186;6.830;2022-10-23T07:29:23;27.80;;;4.28;;
45676;SDS011;31390;51.186;6.830;2022-10-23T07:31:49;15.07;;;4.45;;
45676;SDS011;31390;51.186;6.830;2022-10-23T07:34:34;9.20;;;4.07;;
45676;SDS011;31390;51.186;6.830;2022-10-23T07:37:20;8.80;;;4.20;;
45676;SDS011;31390;51.186;6.830;2022-10-23T07:39:47;13.05;;;4.38;;
45676;SDS011;31390;51.186;6.830;2022-10-23T07:42:13;20.98;;;4.68;;
45676;SDS011;31390;51.186;6.830;2022-10-23T07:44:40;6.40;;;3.75;;
45676;SDS011;31390;51.186;6.830;2022-10-23T07:47:07;17.35;;;4.18;;
45676;SDS011;31390;51.186;6.830;2022-10-23T07:49:34;8.70;;;3.72;;
45676;SDS011;31390;51.186;6.830;2022-10-23T07:52:00;12.15;;;3.83;;
45676;SDS011;31390;51.186;6.830;2022-10-23T07:54:36;7.07;;;3.35;;
45676;SDS011;31390;51.186;6.830;2022-10-23T07:57:18;6.30;;;3.75;;
45676;SDS011;31390;51.186;6.830;2022-10-23T07:59:52;4.63;;;3.17;;
45676;SDS011;31390;51.186;6.830;2022-10-23T08:02:21;5.75;;;3.10;;
45676;SDS011;31390;51.186;6.830;2022-10-23T08:04:48;6.43;;;3.30;;
45676;SDS011;31390;51.186;6.830;2022-10-23T08:07:25;5.63;;;3.45;;
45676;SDS011;31390;51.186;6.830;2022-10-23T08:09:55;8.18;;;2.67;;
45676;SDS011;31390;51.186;6.830;2022-10-23T08:12:22;8.20;;;3.63;;
45676;SDS011;31390;51.186;6.830;2022-10-23T08:14:48;7.97;;;3.15;;
45676;SDS011;31390;51.186;6.830;2022-10-23T08:17:15;4.70;;;2.22;;
45676;SDS011;31390;51.186;6.830;2022-10-23T08:19:57;15.35;;;3.70;;
45676;SDS011;31390;51.186;6.830;2022-10-23T08:22:28;6.15;;;2.42;;
45676;SDS011;31390;51.186;6.830;2022-10-23T08:24:54;5.28;;;2.38;;
45676;SDS011;31390;51.186;6.830;2022-10-23T08:27:23;6.43;;;2.42;;
45676;SDS011;31390;51.186;6.830;2022-10-23T08:29:49;3.83;;;2.20;;
45676;SDS011;31390;51.186;6.830;2022-10-23T08:32:15;8.85;;;2.58;;
45676;SDS011;31390;51.186;6.830;2022-10-23T08:34:58;4.38;;;2.25;;
45676;SDS011;31390;51.186;6.830;2022-10-23T08:37:28;7.00;;;2.72;;
45676;SDS011;31390;51.186;6.830;2022-10-23T08:39:54;6.20;;;2.40;;
45676;SDS011;31390;51.186;6.830;2022-10-23T08:42:45;8.88;;;2.38;;
45676;SDS011;31390;51.186;6.830;2022-10-23T08:48:15;23.25;;;3.63;;
45676;SDS011;31390;51.186;6.830;2022-10-23T08:51:16;5.65;;;2.20;;
45676;SDS011;31390;51.186;6.830;2022-10-23T08:54:05;4.07;;;2.17;;
45676;SDS011;31390;51.186;6.830;2022-10-23T08:56:34;5.50;;;2.13;;
45676;SDS011;31390;51.186;6.830;2022-10-23T08:59:10;7.20;;;2.13;;
45676;SDS011;31390;51.186;6.830;2022-10-23T09:01:46;6.03;;;2.13;;
45676;SDS011;31390;51.186;6.830;2022-10-23T09:04:14;4.10;;;2.05;;
45676;SDS011;31390;51.186;6.830;2022-10-23T09:06:57;6.90;;;2.35;;
45676;SDS011;31390;51.186;6.830;2022-10-23T09:11:58;8.60;;;2.10;;
45676;SDS011;31390;51.186;6.830;2022-10-23T09:19:33;3.60;;;2.08;;
45676;SDS011;31390;51.186;6.830;2022-10-23T09:22:00;11.98;;;2.20;;
45676;SDS011;31390;51.186;6.830;2022-10-23T09:24:27;6.07;;;2.00;;
45676;SDS011;31390;51.186;6.830;2022-10-23T09:26:58;3.85;;;1.92;;
45676;SDS011;31390;51.186;6.830;2022-10-23T09:31:53;6.28;;;2.08;;
45676;SDS011;31390;51.186;6.830;2022-10-23T09:34:21;4.05;;;1.70;;
45676;SDS011;31390;51.186;6.830;2022-10-23T09:36:55;4.22;;;1.73;;
45676;SDS011;31390;51.186;6.830;2022-10-23T09:39:25;7.85;;;2.50;;
45676;SDS011;31390;51.186;6.830;2022-10-23T09:41:52;2.75;;;1.80;;
45676;SDS011;31390;51.186;6.830;2022-10-23T09:44:23;4.13;;;1.70;;
45676;SDS011;31390;51.186;6.830;2022-10-23T09:46:51;5.55;;;2.20;;
45676;SDS011;31390;51.186;6.830;2022-10-23T09:49:23;6.13;;;1.67;;
45676;SDS011;31390;51.186;6.830;2022-10-23T09:51:52;6.43;;;1.95;;
45676;SDS011;31390;51.186;6.830;2022-10-23T09:54:19;5.03;;;2.00;;
45676;SDS011;31390;51.186;6.830;2022-10-23T09:56:50;3.55;;;1.75;;
45676;SDS011;31390;51.186;6.830;2022-10-23T09:59:20;4.80;;;1.92;;
45676;SDS011;31390;51.186;6.830;2022-10-23T10:01:55;4.60;;;1.42;;
45676;SDS011;31390;51.186;6.830;2022-10-23T10:04:58;13.82;;;2.08;;
45676;SDS011;31390;51.186;6.830;2022-10-23T10:07:26;9.30;;;2.10;;
45676;SDS011;31390;51.186;6.830;2022-10-23T10:09:56;4.82;;;1.80;;
45676;SDS011;31390;51.186;6.830;2022-10-23T10:12:46;4.65;;;1.90;;
45676;SDS011;31390;51.186;6.830;2022-10-23T10:15:19;7.18;;;1.90;;
45676;SDS011;31390;51.186;6.830;2022-10-23T10:20:22;5.72;;;2.05;;
45676;SDS011;31390;51.186;6.830;2022-10-23T10:22:53;2.70;;;1.73;;
45676;SDS011;31390;51.186;6.830;2022-10-23T10:25:28;6.00;;;2.08;;
45676;SDS011;31390;51.186;6.830;2022-10-23T10:30:38;6.95;;;1.83;;
45676;SDS011;31390;51.186;6.830;2022-10-23T10:33:12;4.65;;;1.90;;
45676;SDS011;31390;51.186;6.830;2022-10-23T10:35:41;4.55;;;1.77;;
45676;SDS011;31390;51.186;6.830;2022-10-23T10:40:39;4.53;;;2.00;;
45676;SDS011;31390;51.186;6.830;2022-10-23T10:46:07;3.63;;;1.63;;
45676;SDS011;31390;51.186;6.830;2022-10-23T10:48:43;4.90;;;1.95;;
45676;SDS011;31390;51.186;6.830;2022-10-23T10:54:35;4.38;;;2.03;;
45676;SDS011;31390;51.186;6.830;2022-10-23T10:57:09;6.20;;;1.50;;
45676;SDS011;31390;51.186;6.830;2022-10-23T10:59:43;3.70;;;1.83;;
45676;SDS011;31390;51.186;6.830;2022-10-23T11:04:45;3.47;;;1.77;;
45676;SDS011;31390;51.186;6.830;2022-10-23T11:07:18;4.07;;;1.80;;
45676;SDS011;31390;51.186;6.830;2022-10-23T11:09:46;4.47;;;2.03;;
45676;SDS011;31390;51.186;6.830;2022-10-23T11:12:23;3.90;;;1.73;;
45676;SDS011;31390;51.186;6.830;2022-10-23T11:14:51;17.30;;;2.25;;
45676;SDS011;31390;51.186;6.830;2022-10-23T11:17:26;5.30;;;1.70;;
45676;SDS011;31390;51.186;6.830;2022-10-23T11:22:28;3.25;;;1.60;;
45676;SDS011;31390;51.186;6.830;2022-10-23T11:33:08;4.65;;;1.70;;
45676;SDS011;31390;51.186;6.830;2022-10-23T11:38:23;11.50;;;2.22;;
45676;SDS011;31390;51.186;6.830;2022-10-23T11:41:02;5.03;;;2.13;;
45676;SDS011;31390;51.186;6.830;2022-10-23T11:45:56;4.70;;;2.08;;
45676;SDS011;31390;51.186;6.830;2022-10-23T11:48:37;9.15;;;1.98;;
45676;SDS011;31390;51.186;6.830;2022-10-23T11:51:04;10.00;;;2.47;;
45676;SDS011;31390;51.186;6.830;2022-10-23T11:55:59;13.52;;;2.30;;
45676;SDS011;31390;51.186;6.830;2022-10-23T11:58:45;2.58;;;1.35;;
45676;SDS011;31390;51.186;6.830;2022-10-23T12:06:54;5.05;;;1.70;;
45676;SDS011;31390;51.186;6.830;2022-10-23T12:14:44;3.20;;;1.55;;
45676;SDS011;31390;51.186;6.830;2022-10-23T12:19:52;6.80;;;1.67;;
45676;SDS011;31390;51.186;6.830;2022-10-23T12:22:40;2.28;;;1.38;;
45676;SDS011;31390;51.186;6.830;2022-10-23T12:27:47;11.18;;;2.00;;
45676;SDS011;31390;51.186;6.830;2022-10-23T12:35:41;3.72;;;1.70;;
45676;SDS011;31390;51.186;6.830;2022-10-23T12:40:42;3.00;;;2.00;;
45676;SDS011;31390;51.186;6.830;2022-10-23T12:43:26;9.60;;;2.65;;
45676;SDS011;31390;51.186;6.830;2022-10-23T12:45:59;4.22;;;2.15;;
45676;SDS011;31390;51.186;6.830;2022-10-23T12:48:51;7.35;;;2.05;;
45676;SDS011;31390;51.186;6.830;2022-10-23T12:51:22;5.47;;;2.20;;
45676;SDS011;31390;51.186;6.830;2022-10-23T12:53:49;6.22;;;2.17;;
45676;SDS011;31390;51.186;6.830;2022-10-23T12:56:16;7.18;;;2.38;;
45676;SDS011;31390;51.186;6.830;2022-10-23T12:58:48;9.48;;;2.58;;
45676;SDS011;31390;51.186;6.830;2022-10-23T13:01:23;10.90;;;2.53;;
45676;SDS011;31390;51.186;6.830;2022-10-23T13:03:51;4.72;;;2.33;;
45676;SDS011;31390;51.186;6.830;2022-10-23T13:06:21;5.25;;;2.35;;
45676;SDS011;31390;51.186;6.830;2022-10-23T13:08:48;9.25;;;2.17;;
45676;SDS011;31390;51.186;6.830;2022-10-23T13:11:40;8.68;;;2.30;;
45676;SDS011;31390;51.186;6.830;2022-10-23T13:14:11;5.53;;;2.28;;
45676;SDS011;31390;51.186;6.830;2022-10-23T13:16:38;11.73;;;2.00;;
45676;SDS011;31390;51.186;6.830;2022-10-23T13:19:04;5.07;;;2.15;;
45676;SDS011;31390;51.186;6.830;2022-10-23T13:21:31;14.10;;;2.30;;
45676;SDS011;31390;51.186;6.830;2022-10-23T13:23:58;6.50;;;2.25;;
45676;SDS011;31390;51.186;6.830;2022-10-23T13:26:29;8.07;;;2.28;;
45676;SDS011;31390;51.186;6.830;2022-10-23T13:28:56;3.25;;;1.65;;
45676;SDS011;31390;51.186;6.830;2022-10-23T13:31:32;6.93;;;2.05;;
45676;SDS011;31390;51.186;6.830;2022-10-23T13:34:04;4.15;;;2.38;;
45676;SDS011;31390;51.186;6.830;2022-10-23T13:36:33;3.13;;;1.83;;
45676;SDS011;31390;51.186;6.830;2022-10-23T13:41:28;7.35;;;2.40;;
45676;SDS011;31390;51.186;6.830;2022-10-23T13:43:56;6.45;;;2.47;;
45676;SDS011;31390;51.186;6.830;2022-10-23T13:46:23;7.03;;;2.30;;
45676;SDS011;31390;51.186;6.830;2022-10-23T13:48:52;5.43;;;2.38;;
45676;SDS011;31390;51.186;6.830;2022-10-23T13:51:26;18.27;;;3.55;;
45676;SDS011;31390;51.186;6.830;2022-10-23T13:53:54;5.00;;;2.00;;
45676;SDS011;31390;51.186;6.830;2022-10-23T13:56:21;8.93;;;2.50;;
45676;SDS011;31390;51.186;6.830;2022-10-23T13:58:48;10.10;;;2.67;;
45676;SDS011;31390;51.186;6.830;2022-10-23T14:03:44;5.68;;;2.22;;
45676;SDS011;31390;51.186;6.830;2022-10-23T14:06:12;4.82;;;2.25;;
45676;SDS011;31390;51.186;6.830;2022-10-23T14:08:42;4.00;;;2.05;;
45676;SDS011;31390;51.186;6.830;2022-10-23T14:11:12;9.90;;;2.22;;
45676;SDS011;31390;51.186;6.830;2022-10-23T14:13:39;8.00;;;2.20;;
45676;SDS011;31390;51.186;6.830;2022-10-23T14:16:08;6.68;;;2.92;;
45676;SDS011;31390;51.186;6.830;2022-10-23T14:18:36;4.57;;;2.55;;
45676;SDS011;31390;51.186;6.830;2022-10-23T14:21:04;6.53;;;2.70;;
45676;SDS011;31390;51.186;6.830;2022-10-23T14:23:31;9.50;;;2.20;;
45676;SDS011;31390;51.186;6.830;2022-10-23T14:26:04;5.10;;;2.10;;
45676;SDS011;31390;51.186;6.830;2022-10-23T14:28:31;6.15;;;2.47;;
45676;SDS011;31390;51.186;6.830;2022-10-23T14:31:05;8.95;;;2.33;;
45676;SDS011;31390;51.186;6.830;2022-10-23T14:33:32;5.85;;;2.20;;
45676;SDS011;31390;51.186;6.830;2022-10-23T14:35:59;7.35;;;2.50;;
45676;SDS011;31390;51.186;6.830;2022-10-23T14:38:26;2.83;;;2.08;;
45676;SDS011;31390;51.186;6.830;2022-10-23T14:40:55;4.18;;;2.38;;
45676;SDS011;31390;51.186;6.830;2022-10-23T14:43:22;11.65;;;2.40;;
45676;SDS011;31390;51.186;6.830;2022-10-23T14:45:49;4.32;;;2.13;;
45676;SDS011;31390;51.186;6.830;2022-10-23T14:48:15;5.07;;;2.50;;
45676;SDS011;31390;51.186;6.830;2022-10-23T14:50:46;6.78;;;2.40;;
45676;SDS011;31390;51.186;6.830;2022-10-23T14:53:13;5.97;;;2.90;;
45676;SDS011;31390;51.186;6.830;2022-10-23T14:55:40;9.60;;;2.65;;
45676;SDS011;31390;51.186;6.830;2022-10-23T14:58:07;19.73;;;3.60;;
45676;SDS011;31390;51.186;6.830;2022-10-23T15:00:33;4.35;;;2.17;;
45676;SDS011;31390;51.186;6.830;2022-10-23T15:03:00;5.50;;;2.70;;
45676;SDS011;31390;51.186;6.830;2022-10-23T15:05:28;8.68;;;2.58;;
45676;SDS011;31390;51.186;6.830;2022-10-23T15:07:58;6.10;;;2.33;;
45676;SDS011;31390;51.186;6.830;2022-10-23T15:10:30;14.80;;;2.92;;
45676;SDS011;31390;51.186;6.830;2022-10-23T15:12:57;15.07;;;2.95;;
45676;SDS011;31390;51.186;6.830;2022-10-23T15:15:23;6.25;;;2.40;;
45676;SDS011;31390;51.186;6.830;2022-10-23T15:17:50;25.23;;;4.40;;
45676;SDS011;31390;51.186;6.830;2022-10-23T15:20:16;5.15;;;3.10;;
45676;SDS011;31390;51.186;6.830;2022-10-23T15:22:43;7.45;;;2.83;;
45676;SDS011;31390;51.186;6.830;2022-10-23T15:25:10;6.22;;;2.65;;
45676;SDS011;31390;51.186;6.830;2022-10-23T15:27:43;5.82;;;2.78;;
45676;SDS011;31390;51.186;6.830;2022-10-23T15:30:10;4.80;;;2.78;;
45676;SDS011;31390;51.186;6.830;2022-10-23T15:32:39;23.42;;;4.28;;
45676;SDS011;31390;51.186;6.830;2022-10-23T15:35:14;10.40;;;2.92;;
45676;SDS011;31390;51.186;6.830;2022-10-23T15:37:42;6.50;;;2.85;;
45676;SDS011;31390;51.186;6.830;2022-10-23T15:40:10;5.68;;;2.90;;
45676;SDS011;31390;51.186;6.830;2022-10-23T15:42:37;5.18;;;3.13;;
45676;SDS011;31390;51.186;6.830;2022-10-23T15:45:06;6.15;;;3.13;;
45676;SDS011;31390;51.186;6.830;2022-10-23T15:47:33;5.22;;;3.00;;
45676;SDS011;31390;51.186;6.830;2022-10-23T15:49:59;5.78;;;3.42;;
45676;SDS011;31390;51.186;6.830;2022-10-23T15:52:26;30.85;;;6.15;;
45676;SDS011;31390;51.186;6.830;2022-10-23T15:54:53;9.10;;;4.15;;
45676;SDS011;31390;51.186;6.830;2022-10-23T15:57:19;12.07;;;4.00;;
45676;SDS011;31390;51.186;6.830;2022-10-23T15:59:46;8.95;;;3.85;;
45676;SDS011;31390;51.186;6.830;2022-10-23T16:02:13;11.43;;;4.72;;
45676;SDS011;31390;51.186;6.830;2022-10-23T16:04:43;10.25;;;5.55;;
45676;SDS011;31390;51.186;6.830;2022-10-23T16:07:13;19.50;;;5.72;;
45676;SDS011;31390;51.186;6.830;2022-10-23T16:09:40;20.33;;;6.20;;
45676;SDS011;31390;51.186;6.830;2022-10-23T16:12:07;22.15;;;6.82;;
45676;SDS011;31390;51.186;6.830;2022-10-23T16:14:33;11.25;;;6.13;;
45676;SDS011;31390;51.186;6.830;2022-10-23T16:17:00;22.02;;;8.73;;
45676;SDS011;31390;51.186;6.830;2022-10-23T16:19:27;12.68;;;6.18;;
45676;SDS011;31390;51.186;6.830;2022-10-23T16:21:54;18.65;;;6.85;;
45676;SDS011;31390;51.186;6.830;2022-10-23T16:24:20;11.45;;;6.32;;
45676;SDS011;31390;51.186;6.830;2022-10-23T16:26:47;57.53;;;14.40;;
45676;SDS011;31390;51.186;6.830;2022-10-23T16:29:21;14.73;;;6.75;;
45676;SDS011;31390;51.186;6.830;2022-10-23T16:31:49;19.67;;;7.00;;
45676;SDS011;31390;51.186;6.830;2022-10-23T16:34:15;12.35;;;8.15;;
45676;SDS011;31390;51.186;6.830;2022-10-23T16:36:42;16.92;;;7.57;;
45676;SDS011;31390;51.186;6.830;2022-10-23T16:39:32;32.42;;;8.70;;
45676;SDS011;31390;51.186;6.830;2022-10-23T16:42:36;14.63;;;7.65;;
45676;SDS011;31390;51.186;6.830;2022-10-23T16:45:12;18.95;;;9.55;;
45676;SDS011;31390;51.186;6.830;2022-10-23T16:47:39;18.63;;;10.65;;